createdAt,value
2022-12-18T00:00:57.347Z,-3.98
2022-12-18T00:02:00.327Z,-3.94
2022-12-18T00:03:02.173Z,-3.92
2022-12-18T00:04:09.298Z,-3.88
2022-12-18T00:05:11.297Z,-3.88
2022-12-18T00:06:13.144Z,-3.86
2022-12-18T00:07:14.971Z,-3.85
2022-12-18T00:08:17.498Z,-3.86
2022-12-18T00:09:19.453Z,-3.87
2022-12-18T00:10:21.259Z,-3.86
2022-12-18T00:11:24.182Z,-3.86
2022-12-18T00:12:25.956Z,-3.84
2022-12-18T00:13:28.425Z,-3.82
2022-12-18T00:14:30.259Z,-3.80
2022-12-18T00:15:35.438Z,-3.85
2022-12-18T00:16:38.438Z,-3.89
2022-12-18T00:17:40.199Z,-3.89
2022-12-18T00:18:42.741Z,-3.91
2022-12-18T00:19:45.359Z,-3.91
2022-12-18T00:20:47.136Z,-3.92
2022-12-18T00:21:48.917Z,-3.96
2022-12-18T00:22:50.686Z,-4.03
2022-12-18T00:23:53.049Z,-4.11
2022-12-18T00:24:54.865Z,-4.18
2022-12-18T00:26:00.101Z,-4.16
2022-12-18T00:27:01.881Z,-4.14
2022-12-18T00:28:04.954Z,-4.12
2022-12-18T00:29:09.000Z,-4.12
2022-12-18T00:30:11.257Z,-4.12
2022-12-18T00:31:15.291Z,-4.09
2022-12-18T00:32:17.158Z,-4.06
2022-12-18T00:33:19.238Z,-4.02
2022-12-18T00:34:21.051Z,-3.99
2022-12-18T00:35:22.887Z,-3.96
2022-12-18T00:36:26.055Z,-3.94
2022-12-18T00:37:27.960Z,-3.93
2022-12-18T00:38:29.884Z,-3.90
2022-12-18T00:39:31.733Z,-3.88
2022-12-18T00:40:33.556Z,-3.87
2022-12-18T00:41:53.977Z,-3.87
2022-12-18T00:42:58.434Z,-3.95
2022-12-18T00:44:00.213Z,-3.99
2022-12-18T00:45:03.078Z,-4.11
2022-12-18T00:46:06.882Z,-4.24
2022-12-18T00:47:08.666Z,-4.26
2022-12-18T00:48:11.216Z,-4.25
2022-12-18T00:49:14.503Z,-4.25
2022-12-18T00:50:16.364Z,-4.23
2022-12-18T00:51:18.120Z,-4.25
2022-12-18T00:52:19.897Z,-4.23
2022-12-18T00:53:21.784Z,-4.19
2022-12-18T00:54:24.452Z,-4.17
2022-12-18T00:55:26.223Z,-4.15
2022-12-18T00:56:28.041Z,-4.12
2022-12-18T00:57:30.043Z,-4.10
2022-12-18T00:58:32.331Z,-4.09
2022-12-18T00:59:35.423Z,-4.07
2022-12-18T01:00:37.251Z,-4.08
2022-12-18T01:01:39.234Z,-4.06
2022-12-18T01:02:41.640Z,-4.04
2022-12-18T01:03:43.472Z,-4.04
2022-12-18T01:04:46.438Z,-4.06
2022-12-18T01:05:48.179Z,-4.05
2022-12-18T01:06:50.001Z,-4.06
2022-12-18T01:07:52.065Z,-4.08
2022-12-18T01:08:53.851Z,-4.07
2022-12-18T01:09:56.472Z,-4.07
2022-12-18T01:10:58.233Z,-4.08
2022-12-18T01:11:59.986Z,-4.14
2022-12-18T01:13:01.774Z,-4.16
2022-12-18T01:14:03.938Z,-4.15
2022-12-18T01:15:07.444Z,-4.27
2022-12-18T01:16:10.226Z,-4.24
2022-12-18T01:17:12.072Z,-4.29
2022-12-18T01:18:13.799Z,-4.28
2022-12-18T01:19:15.572Z,-4.28
2022-12-18T01:20:17.400Z,-4.30
2022-12-18T01:21:20.953Z,-4.29
2022-12-18T01:22:22.692Z,-4.25
2022-12-18T01:23:24.822Z,-4.27
2022-12-18T01:24:26.719Z,-4.22
2022-12-18T01:25:28.558Z,-4.13
2022-12-18T01:26:31.079Z,-4.08
2022-12-18T01:27:33.991Z,-4.06
2022-12-18T01:28:36.230Z,-4.04
2022-12-18T01:29:37.993Z,-4.00
2022-12-18T01:30:40.020Z,-3.95
2022-12-18T01:31:41.950Z,-3.95
2022-12-18T01:32:43.712Z,-3.93
2022-12-18T01:33:45.699Z,-3.88
2022-12-18T01:34:47.596Z,-3.84
2022-12-18T01:35:50.521Z,-3.82
2022-12-18T01:36:55.177Z,-3.80
2022-12-18T01:37:56.930Z,-3.85
2022-12-18T01:39:00.640Z,-3.88
2022-12-18T01:40:02.444Z,-3.88
2022-12-18T01:41:05.471Z,-3.85
2022-12-18T01:42:12.179Z,-3.88
2022-12-18T01:43:13.945Z,-3.88
2022-12-18T01:44:34.285Z,-3.91
2022-12-18T01:45:36.229Z,-3.91
2022-12-18T01:46:38.012Z,-3.88
2022-12-18T01:48:05.853Z,-3.86
2022-12-18T01:49:07.676Z,-3.88
2022-12-18T01:50:11.913Z,-3.87
2022-12-18T01:51:13.881Z,-3.84
2022-12-18T01:52:16.544Z,-3.78
2022-12-18T01:53:20.265Z,-3.76
2022-12-18T01:54:22.210Z,-3.74
2022-12-18T01:55:25.345Z,-3.75
2022-12-18T01:56:27.096Z,-3.77
2022-12-18T01:57:29.438Z,-3.75
2022-12-18T01:58:34.803Z,-3.75
2022-12-18T01:59:37.928Z,-3.75
2022-12-18T02:00:39.951Z,-3.75
2022-12-18T02:01:42.652Z,-3.80
2022-12-18T02:02:45.440Z,-3.80
2022-12-18T02:03:47.450Z,-3.82
2022-12-18T02:04:49.685Z,-3.83
2022-12-18T02:06:10.091Z,-3.83
2022-12-18T02:07:30.509Z,-3.84
2022-12-18T02:08:39.880Z,-3.86
2022-12-18T02:09:50.624Z,-3.87
2022-12-18T02:11:02.628Z,-3.82
2022-12-18T02:12:14.907Z,-3.94
2022-12-18T02:13:19.420Z,-4.10
2022-12-18T02:14:28.872Z,-4.15
2022-12-18T02:15:37.379Z,-4.14
2022-12-18T02:16:39.217Z,-4.12
2022-12-18T02:17:40.953Z,-4.10
2022-12-18T02:18:45.669Z,-4.12
2022-12-18T02:19:50.227Z,-4.10
2022-12-18T02:21:21.425Z,-4.24
2022-12-18T02:22:52.443Z,-4.22
2022-12-18T02:24:04.618Z,-4.21
2022-12-18T02:25:20.557Z,-4.22
2022-12-18T02:26:48.472Z,-4.17
2022-12-18T02:27:51.179Z,-4.23
2022-12-18T02:28:52.905Z,-4.23
2022-12-18T02:29:58.796Z,-4.25
2022-12-18T02:31:02.519Z,-4.17
2022-12-18T02:32:07.579Z,-4.17
2022-12-18T02:33:10.366Z,-4.29
2022-12-18T02:34:13.034Z,-4.32
2022-12-18T02:35:17.949Z,-4.27
2022-12-18T02:36:21.358Z,-4.20
2022-12-18T02:37:23.649Z,-4.15
2022-12-18T02:38:26.594Z,-4.22
2022-12-18T02:39:30.015Z,-4.26
2022-12-18T02:40:33.238Z,-4.19
2022-12-18T02:41:35.498Z,-4.21
2022-12-18T02:42:37.297Z,-4.28
2022-12-18T02:43:39.430Z,-4.26
2022-12-18T02:44:51.446Z,-4.23
2022-12-18T02:45:53.367Z,-4.37
2022-12-18T02:46:55.700Z,-4.37
2022-12-18T02:47:57.581Z,-4.37
2022-12-18T02:49:06.136Z,-4.32
2022-12-18T02:50:10.865Z,-4.39
2022-12-18T02:51:19.801Z,-4.37
2022-12-18T02:52:29.546Z,-4.44
2022-12-18T02:53:34.633Z,-4.45
2022-12-18T02:54:36.341Z,-4.48
2022-12-18T02:55:43.855Z,-4.44
2022-12-18T02:56:58.588Z,-4.42
2022-12-18T02:58:12.510Z,-4.33
2022-12-18T02:59:17.346Z,-4.33
2022-12-18T03:00:21.496Z,-4.44
2022-12-18T03:01:32.434Z,-4.47
2022-12-18T03:02:49.081Z,-4.42
2022-12-18T03:03:57.029Z,-4.32
2022-12-18T03:05:15.038Z,-4.35
2022-12-18T03:06:19.598Z,-4.39
2022-12-18T03:07:24.614Z,-4.45
2022-12-18T03:08:29.563Z,-4.47
2022-12-18T03:09:40.977Z,-4.45
2022-12-18T03:10:47.054Z,-4.42
2022-12-18T03:12:12.272Z,-4.47
2022-12-18T03:13:17.193Z,-4.50
2022-12-18T03:14:21.916Z,-4.43
2022-12-18T03:15:29.777Z,-4.50
2022-12-18T03:16:32.393Z,-4.48
2022-12-18T03:17:34.804Z,-4.58
2022-12-18T03:18:39.935Z,-4.65
2022-12-18T03:19:43.698Z,-4.66
2022-12-18T03:20:47.404Z,-4.69
2022-12-18T03:21:52.803Z,-4.71
2022-12-18T03:22:58.773Z,-4.68
2022-12-18T03:24:01.709Z,-4.75
2022-12-18T03:25:06.606Z,-4.67
2022-12-18T03:26:10.837Z,-4.64
2022-12-18T03:27:14.373Z,-4.60
2022-12-18T03:28:19.145Z,-4.60
2022-12-18T03:29:26.676Z,-4.65
2022-12-18T03:30:30.286Z,-4.77
2022-12-18T03:31:33.300Z,-4.74
2022-12-18T03:32:40.690Z,-4.65
2022-12-18T03:33:45.479Z,-4.68
2022-12-18T03:34:50.420Z,-4.69
2022-12-18T03:35:52.195Z,-4.64
2022-12-18T03:36:54.437Z,-4.61
2022-12-18T03:37:56.386Z,-4.69
2022-12-18T03:38:58.230Z,-4.72
2022-12-18T03:40:00.134Z,-4.66
2022-12-18T03:41:11.606Z,-4.58
2022-12-18T03:42:16.276Z,-4.63
2022-12-18T03:43:27.174Z,-4.63
2022-12-18T03:44:47.275Z,-4.58
2022-12-18T03:46:03.994Z,-4.52
2022-12-18T03:47:11.704Z,-4.54
2022-12-18T03:48:13.429Z,-4.57
2022-12-18T03:49:24.003Z,-4.52
2022-12-18T03:50:35.539Z,-4.58
2022-12-18T03:51:52.577Z,-4.59
2022-12-18T03:53:03.445Z,-4.59
2022-12-18T03:54:06.642Z,-4.62
2022-12-18T03:55:09.265Z,-4.54
2022-12-18T03:56:11.487Z,-4.58
2022-12-18T03:57:22.421Z,-4.63
2022-12-18T03:58:26.859Z,-4.63
2022-12-18T03:59:30.377Z,-4.62
2022-12-18T04:00:32.767Z,-4.60
2022-12-18T04:01:40.737Z,-4.56
2022-12-18T04:02:46.203Z,-4.64
2022-12-18T04:03:50.626Z,-4.73
2022-12-18T04:04:58.768Z,-4.77
2022-12-18T04:06:02.167Z,-4.69
2022-12-18T04:07:04.705Z,-4.69
2022-12-18T04:08:06.576Z,-4.74
2022-12-18T04:09:08.499Z,-4.71
2022-12-18T04:10:11.067Z,-4.74
2022-12-18T04:11:12.967Z,-4.75
2022-12-18T04:12:14.849Z,-4.68
2022-12-18T04:13:29.363Z,-4.71
2022-12-18T04:14:31.692Z,-4.74
2022-12-18T04:15:35.874Z,-4.78
2022-12-18T04:16:37.957Z,-4.73
2022-12-18T04:17:40.143Z,-4.74
2022-12-18T04:18:41.916Z,-4.69
2022-12-18T04:19:43.783Z,-4.65
2022-12-18T04:20:45.525Z,-4.70
2022-12-18T04:21:47.270Z,-4.72
2022-12-18T04:22:49.591Z,-4.76
2022-12-18T04:23:51.380Z,-4.74
2022-12-18T04:24:53.268Z,-4.71
2022-12-18T04:25:55.415Z,-4.74
2022-12-18T04:26:57.233Z,-4.78
2022-12-18T04:27:58.954Z,-4.82
2022-12-18T04:29:00.817Z,-4.88
2022-12-18T04:30:03.056Z,-4.87
2022-12-18T04:31:04.973Z,-4.84
2022-12-18T04:32:06.874Z,-4.76
2022-12-18T04:33:12.388Z,-4.68
2022-12-18T04:34:14.271Z,-4.69
2022-12-18T04:35:16.089Z,-4.68
2022-12-18T04:36:17.880Z,-4.75
2022-12-18T04:37:19.612Z,-4.80
2022-12-18T04:38:21.402Z,-4.80
2022-12-18T04:39:23.254Z,-4.79
2022-12-18T04:40:25.080Z,-4.77
2022-12-18T04:41:26.807Z,-4.78
2022-12-18T04:42:28.636Z,-4.76
2022-12-18T04:43:30.346Z,-4.73
2022-12-18T04:44:32.171Z,-4.75
2022-12-18T04:45:34.267Z,-4.80
2022-12-18T04:46:36.162Z,-4.73
2022-12-18T04:47:37.946Z,-4.69
2022-12-18T04:48:39.827Z,-4.68
2022-12-18T04:49:41.700Z,-4.70
2022-12-18T04:50:43.486Z,-4.68
2022-12-18T04:51:45.252Z,-4.64
2022-12-18T04:52:46.933Z,-4.65
2022-12-18T04:53:48.647Z,-4.62
2022-12-18T04:54:51.709Z,-4.57
2022-12-18T04:56:03.668Z,-4.54
2022-12-18T04:57:05.399Z,-4.65
2022-12-18T04:58:07.298Z,-4.77
2022-12-18T04:59:09.145Z,-4.86
2022-12-18T05:00:11.719Z,-4.89
2022-12-18T05:01:14.628Z,-4.86
2022-12-18T05:02:17.825Z,-4.85
2022-12-18T05:03:19.677Z,-4.95
2022-12-18T05:04:22.725Z,-4.94
2022-12-18T05:05:24.598Z,-4.95
2022-12-18T05:06:26.607Z,-4.93
2022-12-18T05:07:28.337Z,-4.89
2022-12-18T05:08:30.141Z,-4.99
2022-12-18T05:09:32.752Z,-5.10
2022-12-18T05:10:37.947Z,-5.10
2022-12-18T05:11:40.371Z,-5.04
2022-12-18T05:13:00.074Z,-5.11
2022-12-18T05:14:03.368Z,-5.14
2022-12-18T05:15:05.338Z,-5.14
2022-12-18T05:16:08.786Z,-5.11
2022-12-18T05:17:10.559Z,-5.07
2022-12-18T05:18:12.494Z,-5.08
2022-12-18T05:19:14.338Z,-5.06
2022-12-18T05:20:16.322Z,-5.11
2022-12-18T05:21:18.047Z,-5.09
2022-12-18T05:22:25.880Z,-5.07
2022-12-18T05:23:28.317Z,-5.13
2022-12-18T05:24:30.019Z,-5.11
2022-12-18T05:25:31.760Z,-5.07
2022-12-18T05:26:33.545Z,-5.06
2022-12-18T05:27:35.387Z,-5.11
2022-12-18T05:28:37.553Z,-5.07
2022-12-18T05:29:39.332Z,-5.07
2022-12-18T05:30:41.181Z,-5.17
2022-12-18T05:31:43.078Z,-5.18
2022-12-18T05:32:45.303Z,-5.07
2022-12-18T05:33:47.159Z,-5.04
2022-12-18T05:34:48.892Z,-4.99
2022-12-18T05:35:54.233Z,-4.97
2022-12-18T05:36:55.986Z,-4.97
2022-12-18T05:37:57.790Z,-4.96
2022-12-18T05:39:01.522Z,-5.06
2022-12-18T05:40:04.516Z,-5.08
2022-12-18T05:41:06.735Z,-5.16
2022-12-18T05:42:08.490Z,-5.19
2022-12-18T05:43:10.581Z,-5.18
2022-12-18T05:44:12.577Z,-5.13
2022-12-18T05:45:14.436Z,-5.11
2022-12-18T05:46:19.106Z,-5.16
2022-12-18T05:47:21.357Z,-5.21
2022-12-18T05:48:23.766Z,-5.27
2022-12-18T05:49:25.755Z,-5.28
2022-12-18T05:50:27.469Z,-5.30
2022-12-18T05:51:29.363Z,-5.29
2022-12-18T05:52:31.863Z,-5.23
2022-12-18T05:53:33.780Z,-5.21
2022-12-18T05:54:35.674Z,-5.19
2022-12-18T05:55:38.094Z,-5.19
2022-12-18T05:56:44.130Z,-5.23
2022-12-18T05:57:48.836Z,-5.30
2022-12-18T05:58:54.651Z,-5.33
2022-12-18T05:59:56.523Z,-5.36
2022-12-18T06:00:58.404Z,-5.30
2022-12-18T06:02:00.342Z,-5.32
2022-12-18T06:03:02.504Z,-5.33
2022-12-18T06:04:04.480Z,-5.37
2022-12-18T06:05:07.596Z,-5.35
2022-12-18T06:06:16.300Z,-5.31
2022-12-18T06:07:18.767Z,-5.33
2022-12-18T06:08:20.766Z,-5.38
2022-12-18T06:09:22.516Z,-5.37
2022-12-18T06:10:24.795Z,-5.35
2022-12-18T06:11:27.809Z,-5.39
2022-12-18T06:12:29.691Z,-5.40
2022-12-18T06:13:31.456Z,-5.44
2022-12-18T06:14:33.206Z,-5.42
2022-12-18T06:15:37.619Z,-5.40
2022-12-18T06:16:39.403Z,-5.35
2022-12-18T06:17:41.430Z,-5.42
2022-12-18T06:18:43.222Z,-5.42
2022-12-18T06:19:44.986Z,-5.49
2022-12-18T06:20:46.838Z,-5.42
2022-12-18T06:21:48.678Z,-5.44
2022-12-18T06:22:50.644Z,-5.54
2022-12-18T06:23:52.424Z,-5.54
2022-12-18T06:24:54.707Z,-5.50
2022-12-18T06:25:56.769Z,-5.43
2022-12-18T06:26:58.603Z,-5.47
2022-12-18T06:28:00.643Z,-5.52
2022-12-18T06:29:02.379Z,-5.45
2022-12-18T06:30:05.321Z,-5.37
2022-12-18T06:31:07.729Z,-5.38
2022-12-18T06:32:09.776Z,-5.47
2022-12-18T06:33:11.611Z,-5.43
2022-12-18T06:34:13.379Z,-5.36
2022-12-18T06:35:15.201Z,-5.35
2022-12-18T06:36:17.957Z,-5.31
2022-12-18T06:37:19.766Z,-5.31
2022-12-18T06:38:21.511Z,-5.33
2022-12-18T06:39:23.282Z,-5.31
2022-12-18T06:40:25.104Z,-5.31
2022-12-18T06:41:27.863Z,-5.36
2022-12-18T06:42:30.106Z,-5.36
2022-12-18T06:43:32.258Z,-5.40
2022-12-18T06:44:34.030Z,-5.48
2022-12-18T06:45:35.917Z,-5.55
2022-12-18T06:46:39.563Z,-5.51
2022-12-18T06:47:41.409Z,-5.48
2022-12-18T06:48:43.544Z,-5.42
2022-12-18T06:49:45.404Z,-5.39
2022-12-18T06:50:47.152Z,-5.34
2022-12-18T06:51:49.978Z,-5.33
2022-12-18T06:52:51.693Z,-5.38
2022-12-18T06:53:53.541Z,-5.38
2022-12-18T06:54:55.365Z,-5.34
2022-12-18T06:56:10.249Z,-5.32
2022-12-18T06:57:12.606Z,-5.31
2022-12-18T06:58:14.388Z,-5.32
2022-12-18T06:59:16.193Z,-5.29
2022-12-18T07:00:18.089Z,-5.32
2022-12-18T07:01:20.067Z,-5.35
2022-12-18T07:02:22.112Z,-5.40
2022-12-18T07:03:23.975Z,-5.36
2022-12-18T07:04:29.300Z,-5.34
2022-12-18T07:05:31.106Z,-5.36
2022-12-18T07:06:32.946Z,-5.41
2022-12-18T07:07:35.934Z,-5.49
2022-12-18T07:08:37.781Z,-5.49
2022-12-18T07:09:39.657Z,-5.51
2022-12-18T07:10:46.834Z,-5.48
2022-12-18T07:11:50.020Z,-5.45
2022-12-18T07:12:51.836Z,-5.41
2022-12-18T07:13:54.577Z,-5.37
2022-12-18T07:14:56.465Z,-5.35
2022-12-18T07:16:04.514Z,-5.40
2022-12-18T07:17:06.570Z,-5.39
2022-12-18T07:18:08.788Z,-5.34
2022-12-18T07:19:10.786Z,-5.30
2022-12-18T07:20:12.589Z,-5.30
2022-12-18T07:21:16.065Z,-5.31
2022-12-18T07:22:17.857Z,-5.32
2022-12-18T07:23:19.657Z,-5.42
2022-12-18T07:24:22.965Z,-5.44
2022-12-18T07:25:24.750Z,-5.45
2022-12-18T07:26:27.502Z,-5.47
2022-12-18T07:27:29.424Z,-5.52
2022-12-18T07:28:31.388Z,-5.57
2022-12-18T07:29:33.241Z,-5.59
2022-12-18T07:30:35.211Z,-5.54
2022-12-18T07:31:36.954Z,-5.48
2022-12-18T07:32:38.734Z,-5.36
2022-12-18T07:33:40.955Z,-5.37
2022-12-18T07:34:43.051Z,-5.53
2022-12-18T07:35:44.814Z,-5.52
2022-12-18T07:36:46.576Z,-5.52
2022-12-18T07:37:48.417Z,-5.47
2022-12-18T07:38:50.970Z,-5.37
2022-12-18T07:39:52.759Z,-5.30
2022-12-18T07:40:54.569Z,-5.31
2022-12-18T07:42:14.885Z,-5.36
2022-12-18T07:43:16.650Z,-5.32
2022-12-18T07:44:18.515Z,-5.26
2022-12-18T07:45:21.447Z,-5.29
2022-12-18T07:46:23.628Z,-5.31
2022-12-18T07:47:25.478Z,-5.42
2022-12-18T07:48:27.577Z,-5.52
2022-12-18T07:49:29.616Z,-5.56
2022-12-18T07:50:31.387Z,-5.57
2022-12-18T07:51:33.238Z,-5.53
2022-12-18T07:52:34.967Z,-5.45
2022-12-18T07:53:37.404Z,-5.37
2022-12-18T07:54:40.130Z,-5.43
2022-12-18T07:56:17.781Z,-5.47
2022-12-18T07:57:21.229Z,-5.37
2022-12-18T07:58:28.361Z,-5.32
2022-12-18T07:59:30.320Z,-5.31
2022-12-18T08:00:32.554Z,-5.31
2022-12-18T08:01:35.081Z,-5.32
2022-12-18T08:02:37.068Z,-5.29
2022-12-18T08:03:41.885Z,-5.23
2022-12-18T08:04:44.636Z,-5.17
2022-12-18T08:05:46.538Z,-5.18
2022-12-18T08:06:48.545Z,-5.12
2022-12-18T08:07:50.504Z,-5.08
2022-12-18T08:08:54.739Z,-5.07
2022-12-18T08:09:56.636Z,-5.12
2022-12-18T08:10:58.744Z,-5.12
2022-12-18T08:12:00.634Z,-5.10
2022-12-18T08:13:05.108Z,-5.11
2022-12-18T08:14:08.989Z,-5.10
2022-12-18T08:15:10.958Z,-5.07
2022-12-18T08:16:12.796Z,-5.04
2022-12-18T08:17:14.793Z,-5.03
2022-12-18T08:18:16.596Z,-5.12
2022-12-18T08:19:18.963Z,-5.17
2022-12-18T08:20:20.735Z,-5.15
2022-12-18T08:21:24.521Z,-5.21
2022-12-18T08:22:26.375Z,-5.21
2022-12-18T08:23:28.938Z,-5.25
2022-12-18T08:24:30.821Z,-5.26
2022-12-18T08:25:32.558Z,-5.23
2022-12-18T08:26:34.985Z,-5.18
2022-12-18T08:27:37.332Z,-5.15
2022-12-18T08:28:39.553Z,-5.15
2022-12-18T08:29:41.443Z,-5.15
2022-12-18T08:30:43.676Z,-5.14
2022-12-18T08:31:45.606Z,-5.14
2022-12-18T08:32:47.443Z,-5.16
2022-12-18T08:33:50.304Z,-5.09
2022-12-18T08:34:52.150Z,-5.06
2022-12-18T08:35:54.024Z,-5.11
2022-12-18T08:36:55.894Z,-5.16
2022-12-18T08:37:57.753Z,-5.14
2022-12-18T08:38:59.655Z,-5.12
2022-12-18T08:40:02.113Z,-5.13
2022-12-18T08:41:05.322Z,-5.13
2022-12-18T08:42:26.983Z,-5.08
2022-12-18T08:43:47.636Z,-5.05
2022-12-18T08:44:49.394Z,-5.07
2022-12-18T08:45:52.212Z,-5.05
2022-12-18T08:46:53.911Z,-5.12
2022-12-18T08:47:55.932Z,-5.07
2022-12-18T08:48:57.658Z,-4.99
2022-12-18T08:49:59.633Z,-4.93
2022-12-18T08:51:01.474Z,-4.84
2022-12-18T08:52:04.123Z,-4.75
2022-12-18T08:53:05.941Z,-4.66
2022-12-18T08:54:08.002Z,-4.58
2022-12-18T08:55:10.850Z,-4.51
2022-12-18T08:56:13.440Z,-4.47
2022-12-18T08:57:15.271Z,-4.49
2022-12-18T08:58:17.138Z,-4.48
2022-12-18T08:59:20.075Z,-4.46
2022-12-18T09:00:22.709Z,-4.35
2022-12-18T09:01:24.922Z,-4.30
2022-12-18T09:02:27.095Z,-4.22
2022-12-18T09:03:29.298Z,-4.20
2022-12-18T09:04:31.231Z,-4.18
2022-12-18T09:05:33.196Z,-4.17
2022-12-18T09:06:34.977Z,-4.14
2022-12-18T09:07:36.802Z,-4.14
2022-12-18T09:08:39.356Z,-4.16
2022-12-18T09:09:41.475Z,-4.06
2022-12-18T09:10:44.610Z,-4.05
2022-12-18T09:11:46.367Z,-4.02
2022-12-18T09:12:48.174Z,-3.91
2022-12-18T09:13:49.993Z,-3.90
2022-12-18T09:14:51.844Z,-3.92
2022-12-18T09:15:54.667Z,-3.88
2022-12-18T09:16:56.508Z,-3.92
2022-12-18T09:17:58.357Z,-3.81
2022-12-18T09:19:01.025Z,-3.75
2022-12-18T09:20:02.892Z,-3.76
2022-12-18T09:21:12.097Z,-3.73
2022-12-18T09:22:13.894Z,-3.75
2022-12-18T09:23:15.776Z,-3.69
2022-12-18T09:24:17.978Z,-3.63
2022-12-18T09:25:19.926Z,-3.56
2022-12-18T09:26:22.769Z,-3.57
2022-12-18T09:27:24.538Z,-3.55
2022-12-18T09:28:28.478Z,-3.46
2022-12-18T09:29:30.335Z,-3.43
2022-12-18T09:30:34.664Z,-3.38
2022-12-18T09:31:37.951Z,-3.44
2022-12-18T09:32:39.723Z,-3.48
2022-12-18T09:33:41.976Z,-3.49
2022-12-18T09:34:43.794Z,-3.42
2022-12-18T09:35:46.754Z,-3.40
2022-12-18T09:36:48.873Z,-3.44
2022-12-18T09:37:50.621Z,-3.43
2022-12-18T09:38:52.535Z,-3.32
2022-12-18T09:39:54.381Z,-3.31
2022-12-18T09:41:00.336Z,-3.24
2022-12-18T09:42:02.107Z,-3.18
2022-12-18T09:43:08.426Z,-3.21
2022-12-18T09:44:15.859Z,-3.26
2022-12-18T09:45:18.650Z,-3.22
2022-12-18T09:46:26.643Z,-3.17
2022-12-18T09:47:28.550Z,-3.16
2022-12-18T09:48:33.841Z,-3.11
2022-12-18T09:49:38.627Z,-3.10
2022-12-18T09:50:41.262Z,-3.04
2022-12-18T09:51:48.670Z,-2.95
2022-12-18T09:52:53.826Z,-2.91
2022-12-18T09:54:00.300Z,-2.89
2022-12-18T09:55:05.367Z,-2.83
2022-12-18T09:56:11.438Z,-2.75
2022-12-18T09:57:18.942Z,-2.70
2022-12-18T09:58:27.276Z,-2.60
2022-12-18T09:59:33.465Z,-2.64
2022-12-18T10:00:35.335Z,-2.60
2022-12-18T10:01:43.906Z,-2.55
2022-12-18T10:02:47.210Z,-2.51
2022-12-18T10:03:49.547Z,-2.48
2022-12-18T10:05:02.229Z,-2.49
2022-12-18T10:06:12.278Z,-2.59
2022-12-18T10:07:20.512Z,-2.57
2022-12-18T10:08:28.260Z,-2.59
2022-12-18T10:09:43.777Z,-2.54
2022-12-18T10:10:45.452Z,-2.51
2022-12-18T10:11:47.690Z,-2.49
2022-12-18T10:12:52.315Z,-2.44
2022-12-18T10:13:58.801Z,-2.39
2022-12-18T10:15:08.713Z,-2.32
2022-12-18T10:16:14.851Z,-2.28
2022-12-18T10:17:19.512Z,-2.26
2022-12-18T10:18:27.417Z,-2.25
2022-12-18T10:19:50.500Z,-2.22
2022-12-18T10:20:55.918Z,-2.20
2022-12-18T10:22:09.694Z,-2.17
2022-12-18T10:23:14.471Z,-2.14
2022-12-18T10:24:23.836Z,-2.11
2022-12-18T10:25:32.502Z,-2.13
2022-12-18T10:26:34.315Z,-2.11
2022-12-18T10:27:36.171Z,-2.13
2022-12-18T10:28:40.777Z,-2.12
2022-12-18T10:29:46.992Z,-2.12
2022-12-18T10:30:48.877Z,-2.09
2022-12-18T10:31:51.345Z,-2.17
2022-12-18T10:32:53.199Z,-2.14
2022-12-18T10:33:55.597Z,-2.10
2022-12-18T10:35:00.856Z,-2.13
2022-12-18T10:36:04.129Z,-2.16
2022-12-18T10:37:12.480Z,-2.16
2022-12-18T10:38:17.661Z,-2.16
2022-12-18T10:39:24.065Z,-2.16
2022-12-18T10:40:25.945Z,-2.15
2022-12-18T10:41:29.381Z,-2.17
2022-12-18T10:42:31.430Z,-2.17
2022-12-18T10:43:37.077Z,-2.13
2022-12-18T10:44:38.856Z,-2.11
2022-12-18T10:45:41.144Z,-2.13
2022-12-18T10:46:43.170Z,-2.09
2022-12-18T10:47:46.433Z,-2.05
2022-12-18T10:48:48.159Z,-2.02
2022-12-18T10:49:51.974Z,-1.98
2022-12-18T10:51:10.881Z,-1.99
2022-12-18T10:52:26.118Z,-1.99
2022-12-18T10:53:31.966Z,-1.96
2022-12-18T10:54:35.091Z,-1.96
2022-12-18T10:55:39.568Z,-1.93
2022-12-18T10:56:41.684Z,-1.91
2022-12-18T10:57:46.207Z,-1.91
2022-12-18T10:58:57.515Z,-1.86
2022-12-18T11:00:00.290Z,-1.82
2022-12-18T11:01:07.443Z,-1.79
2022-12-18T11:02:27.357Z,-1.73
2022-12-18T11:03:40.112Z,-1.74
2022-12-18T11:04:51.320Z,-1.74
2022-12-18T11:06:02.482Z,-1.73
2022-12-18T11:07:09.146Z,-1.73
2022-12-18T11:08:22.278Z,-1.72
2022-12-18T11:09:25.694Z,-1.72
2022-12-18T11:10:47.777Z,-1.70
2022-12-18T11:11:50.486Z,-1.68
2022-12-18T11:12:53.278Z,-1.69
2022-12-18T11:14:06.541Z,-1.68
2022-12-18T11:15:16.496Z,-1.66
2022-12-18T11:16:21.439Z,-1.59
2022-12-18T11:17:29.523Z,-1.54
2022-12-18T11:18:34.288Z,-1.51
2022-12-18T11:19:37.172Z,-1.48
2022-12-18T11:20:40.277Z,-1.47
2022-12-18T11:21:42.900Z,-1.46
2022-12-18T11:22:44.772Z,-1.44
2022-12-18T11:23:51.923Z,-1.43
2022-12-18T11:25:29.567Z,-1.40
2022-12-18T11:26:18.785Z,-1.39
2022-12-18T11:27:20.618Z,-1.35
2022-12-18T11:28:42.515Z,-1.34
2022-12-18T11:29:46.722Z,-1.30
2022-12-18T11:30:48.816Z,-1.28
2022-12-18T11:31:50.636Z,-1.29
2022-12-18T11:32:55.597Z,-1.26
2022-12-18T11:34:27.454Z,-1.23
2022-12-18T11:35:32.190Z,-1.21
2022-12-18T11:36:41.006Z,-1.18
2022-12-18T11:37:44.913Z,-1.19
2022-12-18T11:38:47.642Z,-1.17
2022-12-18T11:40:13.988Z,-1.17
2022-12-18T11:42:08.449Z,-1.21
2022-12-18T11:43:28.770Z,-1.17
2022-12-18T11:44:39.512Z,-1.15
2022-12-18T11:45:47.225Z,-1.18
2022-12-18T11:46:54.272Z,-1.20
2022-12-18T11:48:08.558Z,-1.19
2022-12-18T11:49:22.771Z,-1.13
2022-12-18T11:50:26.623Z,-1.07
2022-12-18T11:51:33.447Z,-1.05
2022-12-18T11:52:39.469Z,-1.04
2022-12-18T11:53:41.357Z,-1.04
2022-12-18T11:54:43.153Z,-1.03
2022-12-18T11:55:50.658Z,-1.02
2022-12-18T11:56:55.082Z,-1.01
2022-12-18T11:58:05.882Z,-0.94
2022-12-18T11:59:18.186Z,-0.94
2022-12-18T12:00:20.903Z,-0.92
2022-12-18T12:01:28.636Z,-0.91
2022-12-18T12:02:49.229Z,-0.87
2022-12-18T12:04:00.313Z,-0.87
2022-12-18T12:05:20.796Z,-0.86
2022-12-18T12:06:37.797Z,-0.82
2022-12-18T12:07:44.886Z,-0.81
2022-12-18T12:08:46.611Z,-0.81
2022-12-18T12:09:49.276Z,-0.86
2022-12-18T12:11:06.900Z,-0.83
2022-12-18T12:12:11.986Z,-0.75
2022-12-18T12:13:16.765Z,-0.72
2022-12-18T12:14:26.745Z,-0.67
2022-12-18T12:15:31.364Z,-0.63
2022-12-18T12:16:47.574Z,-0.62
2022-12-18T12:17:49.334Z,-0.56
2022-12-18T12:19:09.353Z,-0.52
2022-12-18T12:20:29.760Z,-0.36
2022-12-18T12:21:33.382Z,-0.27
2022-12-18T12:23:01.216Z,-0.13
2022-12-18T12:24:14.334Z,0.09
2022-12-18T12:25:28.277Z,0.21
2022-12-18T12:26:53.070Z,0.33
2022-12-18T12:28:13.738Z,0.51
2022-12-18T12:29:30.400Z,0.65
2022-12-18T12:30:37.152Z,0.75
2022-12-18T12:32:05.060Z,0.81
2022-12-18T12:33:27.145Z,0.91
2022-12-18T12:34:35.797Z,1.06
2022-12-18T12:35:57.367Z,1.23
2022-12-18T12:37:08.288Z,1.31
2022-12-18T12:38:33.301Z,1.42
2022-12-18T12:39:39.394Z,1.58
2022-12-18T12:40:53.975Z,1.67
2022-12-18T12:42:16.321Z,1.77
2022-12-18T12:43:24.016Z,1.74
2022-12-18T12:44:28.833Z,1.85
2022-12-18T12:45:45.956Z,1.91
2022-12-18T12:46:50.563Z,1.95
2022-12-18T12:47:53.952Z,2.01
2022-12-18T12:49:07.369Z,2.14
2022-12-18T12:50:15.574Z,2.27
2022-12-18T12:51:17.255Z,2.32
2022-12-18T12:52:24.199Z,2.38
2022-12-18T12:53:30.121Z,2.45
2022-12-18T12:54:33.180Z,2.42
2022-12-18T12:55:35.566Z,2.42
2022-12-18T12:56:44.407Z,2.50
2022-12-18T12:57:56.174Z,2.64
2022-12-18T12:59:03.684Z,2.83
2022-12-18T13:00:14.435Z,2.92
2022-12-18T13:01:23.406Z,2.99
2022-12-18T13:02:32.189Z,3.08
2022-12-18T13:03:53.100Z,3.17
2022-12-18T13:05:00.785Z,3.30
2022-12-18T13:06:06.654Z,3.30
2022-12-18T13:07:32.027Z,3.15
2022-12-18T13:08:52.275Z,3.06
2022-12-18T13:10:15.492Z,3.11
2022-12-18T13:11:48.809Z,3.15
2022-12-18T13:13:00.992Z,3.07
2022-12-18T13:14:03.673Z,3.03
2022-12-18T13:15:28.871Z,2.98
2022-12-18T13:16:31.915Z,3.07
2022-12-18T13:17:33.784Z,3.16
2022-12-18T13:18:37.468Z,3.28
2022-12-18T13:19:39.370Z,3.40
2022-12-18T13:20:41.339Z,3.42
2022-12-18T13:21:43.982Z,3.31
2022-12-18T13:22:48.939Z,3.20
2022-12-18T13:23:50.865Z,3.00
2022-12-18T13:24:52.703Z,2.74
2022-12-18T13:25:56.364Z,2.55
2022-12-18T13:26:58.424Z,2.36
2022-12-18T13:28:09.732Z,2.25
2022-12-18T13:29:11.560Z,2.20
2022-12-18T13:30:31.928Z,2.14
2022-12-18T13:31:42.561Z,2.07
2022-12-18T13:32:44.558Z,1.91
2022-12-18T13:34:23.963Z,1.85
2022-12-18T13:35:18.583Z,1.83
2022-12-18T13:36:24.341Z,1.87
2022-12-18T13:37:42.689Z,1.88
2022-12-18T13:38:45.984Z,1.88
2022-12-18T13:39:49.388Z,1.87
2022-12-18T13:40:51.199Z,1.79
2022-12-18T13:41:54.810Z,1.75
2022-12-18T13:43:14.987Z,1.72
2022-12-18T13:44:28.864Z,1.69
2022-12-18T13:45:39.555Z,1.58
2022-12-18T13:46:45.749Z,1.51
2022-12-18T13:47:48.889Z,1.46
2022-12-18T13:49:09.819Z,1.45
2022-12-18T13:50:28.563Z,1.39
2022-12-18T13:51:36.680Z,1.37
2022-12-18T13:52:41.726Z,1.31
2022-12-18T13:53:46.043Z,1.29
2022-12-18T13:54:52.895Z,1.23
2022-12-18T13:55:56.511Z,1.13
2022-12-18T13:56:58.539Z,1.03
2022-12-18T13:58:07.052Z,0.89
2022-12-18T13:59:17.279Z,0.73
2022-12-18T14:00:23.654Z,0.62
2022-12-18T14:01:25.809Z,0.63
2022-12-18T14:02:29.456Z,0.59
2022-12-18T14:03:31.962Z,0.60